createdAt,value
2023-02-22T00:01:33.653Z,25.10
2023-02-22T00:04:06.425Z,25.73
2023-02-22T00:06:36.552Z,25.20
2023-02-22T00:09:03.884Z,25.80
2023-02-22T00:11:35.558Z,25.67
2023-02-22T00:14:02.681Z,25.30
2023-02-22T00:16:34.441Z,25.30
2023-02-22T00:19:01.587Z,24.67
2023-02-22T00:21:31.125Z,26.63
2023-02-22T00:23:58.272Z,25.87
2023-02-22T00:26:25.406Z,26.70
2023-02-22T00:28:53.962Z,24.77
2023-02-22T00:31:26.632Z,25.27
2023-02-22T00:33:53.786Z,24.73
2023-02-22T00:36:20.860Z,24.57
2023-02-22T00:38:50.056Z,24.80
2023-02-22T00:41:19.609Z,23.10
2023-02-22T00:43:48.958Z,23.40
2023-02-22T00:46:20.665Z,23.77
2023-02-22T00:48:50.103Z,23.23
2023-02-22T00:51:19.416Z,22.50
2023-02-22T00:53:48.727Z,21.27
2023-02-22T00:56:18.596Z,21.93
2023-02-22T00:58:48.259Z,22.40
2023-02-22T01:01:15.699Z,20.67
2023-02-22T01:03:43.055Z,21.17
2023-02-22T01:06:12.300Z,21.20
2023-02-22T01:08:47.486Z,20.87
2023-02-22T01:11:16.609Z,20.87
2023-02-22T01:13:54.140Z,21.83
2023-02-22T01:16:26.168Z,21.13
2023-02-22T01:18:55.786Z,20.87
2023-02-22T01:21:24.979Z,20.47
2023-02-22T01:23:55.104Z,20.20
2023-02-22T01:26:24.566Z,21.83
2023-02-22T01:28:51.691Z,20.67
2023-02-22T01:31:21.139Z,19.17
2023-02-22T01:33:53.690Z,20.67
2023-02-22T01:36:23.372Z,19.33
2023-02-22T01:38:53.234Z,19.20
2023-02-22T01:41:23.040Z,18.97
2023-02-22T01:43:50.139Z,19.53
2023-02-22T01:46:23.972Z,19.10
2023-02-22T01:48:56.022Z,18.33
2023-02-22T01:51:28.424Z,18.07
2023-02-22T01:53:57.219Z,18.47
2023-02-22T01:56:26.676Z,17.77
2023-02-22T01:59:07.872Z,17.77
2023-02-22T02:01:42.959Z,18.47
2023-02-22T02:04:19.296Z,17.93
2023-02-22T02:06:52.993Z,17.40
2023-02-22T02:09:50.524Z,18.07
2023-02-22T02:12:19.835Z,16.83
2023-02-22T02:14:47.323Z,16.73
2023-02-22T02:17:18.333Z,16.83
2023-02-22T02:20:25.019Z,15.73
2023-02-22T02:23:14.819Z,16.20
2023-02-22T02:26:11.016Z,16.23
2023-02-22T02:29:06.944Z,16.83
2023-02-22T02:31:36.534Z,16.93
2023-02-22T02:34:21.912Z,16.10
2023-02-22T02:37:07.164Z,16.30
2023-02-22T02:39:41.463Z,15.27
2023-02-22T02:42:20.300Z,16.30
2023-02-22T02:45:03.603Z,16.07
2023-02-22T02:47:37.208Z,16.17
2023-02-22T02:50:11.504Z,15.63
2023-02-22T02:52:40.893Z,14.37
2023-02-22T02:55:13.765Z,14.00
2023-02-22T02:57:40.850Z,14.53
2023-02-22T03:00:23.987Z,14.40
2023-02-22T03:03:17.730Z,13.37
2023-02-22T03:06:09.705Z,12.97
2023-02-22T03:08:58.152Z,13.80
2023-02-22T03:11:29.320Z,14.03
2023-02-22T03:14:25.353Z,13.03
2023-02-22T03:17:09.521Z,13.33
2023-02-22T03:19:44.155Z,14.27
2023-02-22T03:22:28.547Z,14.03
2023-02-22T03:25:07.149Z,14.47
2023-02-22T03:27:43.600Z,13.97
2023-02-22T03:30:24.844Z,13.77
2023-02-22T03:32:58.593Z,14.30
2023-02-22T03:35:31.223Z,13.73
2023-02-22T03:38:02.214Z,13.83
2023-02-22T03:40:38.880Z,13.77
2023-02-22T03:43:09.979Z,13.73
2023-02-22T03:45:43.414Z,13.97
2023-02-22T03:48:23.069Z,14.63
2023-02-22T03:50:53.289Z,14.00
2023-02-22T03:53:23.240Z,13.30
2023-02-22T03:55:55.561Z,14.73
2023-02-22T03:58:24.240Z,14.47
2023-02-22T04:00:53.305Z,14.17
2023-02-22T04:03:23.813Z,14.70
2023-02-22T04:05:53.400Z,13.87
2023-02-22T04:08:22.834Z,14.10
2023-02-22T04:10:49.985Z,14.17
2023-02-22T04:13:19.309Z,14.40
2023-02-22T04:15:46.523Z,13.67
2023-02-22T04:18:14.238Z,13.23
2023-02-22T04:20:41.466Z,13.40
2023-02-22T04:23:10.887Z,13.27
2023-02-22T04:25:42.825Z,12.33
2023-02-22T04:28:16.874Z,10.80
2023-02-22T04:30:44.147Z,11.50
2023-02-22T04:33:16.773Z,10.50
2023-02-22T04:35:46.594Z,10.00
2023-02-22T04:38:13.732Z,9.77
2023-02-22T04:40:43.102Z,9.87
2023-02-22T04:43:10.269Z,10.40
2023-02-22T04:45:39.890Z,9.67
2023-02-22T04:48:09.215Z,9.30
2023-02-22T04:50:36.420Z,9.47
2023-02-22T04:53:03.684Z,8.50
2023-02-22T04:55:34.941Z,9.60
2023-02-22T04:58:04.584Z,10.03
2023-02-22T05:00:31.713Z,9.10
2023-02-22T05:02:58.866Z,9.80
2023-02-22T05:05:28.532Z,9.73
2023-02-22T05:07:57.634Z,8.87
2023-02-22T05:10:27.334Z,8.93
2023-02-22T05:12:58.788Z,9.23
2023-02-22T05:15:25.979Z,9.90
2023-02-22T05:17:55.653Z,9.23
2023-02-22T05:20:31.617Z,9.33
2023-02-22T05:23:02.303Z,9.30
2023-02-22T05:25:34.545Z,9.50
2023-02-22T05:28:10.883Z,9.17
2023-02-22T05:30:40.893Z,8.73
2023-02-22T05:33:10.879Z,8.77
2023-02-22T05:35:43.793Z,9.03
2023-02-22T05:38:15.062Z,9.70
2023-02-22T05:40:44.777Z,8.73
2023-02-22T05:43:11.867Z,9.60
2023-02-22T05:45:38.988Z,8.77
2023-02-22T05:48:08.916Z,8.93
2023-02-22T05:50:35.988Z,8.43
2023-02-22T05:53:05.795Z,8.70
2023-02-22T05:55:37.575Z,7.87
2023-02-22T05:58:05.944Z,8.23
2023-02-22T06:00:33.274Z,8.47
2023-02-22T06:03:08.110Z,8.87
2023-02-22T06:05:38.854Z,7.83
2023-02-22T06:08:09.800Z,8.23
2023-02-22T06:10:42.000Z,8.03
2023-02-22T06:13:09.487Z,8.23
2023-02-22T06:15:36.636Z,8.10
2023-02-22T06:18:03.936Z,8.00
2023-02-22T06:20:35.690Z,7.83
2023-02-22T06:23:04.929Z,7.77
2023-02-22T06:25:34.667Z,8.33
2023-02-22T06:28:02.211Z,8.40
2023-02-22T06:30:30.463Z,8.30
2023-02-22T06:32:57.997Z,8.80
2023-02-22T06:35:27.364Z,8.80
2023-02-22T06:37:58.842Z,8.67
2023-02-22T06:40:29.514Z,8.50
2023-02-22T06:42:58.067Z,9.13
2023-02-22T06:45:27.825Z,8.80
2023-02-22T06:47:59.709Z,8.93
2023-02-22T06:50:29.281Z,8.70
2023-02-22T06:52:59.565Z,8.63
2023-02-22T06:55:31.810Z,8.93
2023-02-22T06:58:05.025Z,8.40
2023-02-22T07:00:35.108Z,8.33
2023-02-22T07:03:04.698Z,8.40
2023-02-22T07:05:31.897Z,8.73
2023-02-22T07:08:06.726Z,8.27
2023-02-22T07:10:39.924Z,8.13
2023-02-22T07:13:08.675Z,8.60
2023-02-22T07:15:36.452Z,9.60
2023-02-22T07:18:07.384Z,8.57
2023-02-22T07:20:34.629Z,8.57
2023-02-22T07:23:06.883Z,9.27
2023-02-22T07:25:34.227Z,8.83
2023-02-22T07:28:03.701Z,8.80
2023-02-22T07:30:34.220Z,9.33
2023-02-22T07:33:10.068Z,8.73
2023-02-22T07:35:48.435Z,9.33
2023-02-22T07:38:19.980Z,9.53
2023-02-22T07:40:49.786Z,9.00
2023-02-22T07:43:24.552Z,9.07
2023-02-22T07:45:56.485Z,9.90
2023-02-22T07:48:25.669Z,8.87
2023-02-22T07:51:00.525Z,9.53
2023-02-22T07:53:34.005Z,9.63
2023-02-22T07:56:08.915Z,9.63
2023-02-22T07:58:39.177Z,9.37
2023-02-22T08:01:08.748Z,9.10
2023-02-22T08:03:38.584Z,9.90
2023-02-22T08:06:09.242Z,10.10
2023-02-22T08:08:36.463Z,8.77
2023-02-22T08:11:04.085Z,8.93
2023-02-22T08:13:31.366Z,9.00
2023-02-22T08:15:58.793Z,10.27
2023-02-22T08:18:28.085Z,10.93
2023-02-22T08:20:55.510Z,12.10
2023-02-22T08:23:28.986Z,10.83
2023-02-22T08:26:08.248Z,8.93
2023-02-22T08:28:37.847Z,10.13
2023-02-22T08:31:07.745Z,10.10
2023-02-22T08:33:37.485Z,8.97
2023-02-22T08:36:05.289Z,10.07
2023-02-22T08:38:35.058Z,9.70
2023-02-22T08:41:02.221Z,9.77
2023-02-22T08:43:29.382Z,11.27
2023-02-22T08:45:58.956Z,10.03
2023-02-22T08:48:26.292Z,10.50
2023-02-22T08:50:53.583Z,9.87
2023-02-22T08:53:24.987Z,9.77
2023-02-22T08:55:55.531Z,9.27
2023-02-22T08:58:27.167Z,9.47
2023-02-22T09:00:58.674Z,10.63
2023-02-22T09:03:28.344Z,9.37
2023-02-22T09:05:55.855Z,10.40
2023-02-22T09:08:25.216Z,9.63
2023-02-22T09:10:52.503Z,9.90
2023-02-22T09:13:19.752Z,9.37
2023-02-22T09:15:46.853Z,9.70
2023-02-22T09:18:14.754Z,9.63
2023-02-22T09:20:42.368Z,9.90
2023-02-22T09:23:10.073Z,10.03
2023-02-22T09:25:38.870Z,9.70
2023-02-22T09:28:06.261Z,10.33
2023-02-22T09:30:35.147Z,10.33
2023-02-22T09:33:10.171Z,10.30
2023-02-22T09:35:46.571Z,9.30
2023-02-22T09:38:18.901Z,9.80
2023-02-22T09:41:14.553Z,9.87
2023-02-22T09:44:15.470Z,10.20
2023-02-22T09:46:45.810Z,9.80
2023-02-22T09:49:19.440Z,10.07
2023-02-22T09:52:08.055Z,10.77
2023-02-22T09:54:43.450Z,11.07
2023-02-22T09:57:20.698Z,11.60
2023-02-22T10:00:32.519Z,10.47
2023-02-22T10:03:21.350Z,10.63
2023-02-22T10:06:09.205Z,10.80
2023-02-22T10:08:41.910Z,10.50
2023-02-22T10:11:29.600Z,10.33
2023-02-22T10:14:14.570Z,10.23
2023-02-22T10:16:49.963Z,10.40
2023-02-22T10:19:43.893Z,9.93
2023-02-22T10:22:37.452Z,10.50
2023-02-22T10:25:12.978Z,10.13
2023-02-22T10:27:44.959Z,10.57
2023-02-22T10:30:25.120Z,9.97
2023-02-22T10:33:17.159Z,9.97
2023-02-22T10:35:46.935Z,11.13
2023-02-22T10:38:17.321Z,10.57
2023-02-22T10:41:10.287Z,11.73
2023-02-22T10:43:43.161Z,10.90
2023-02-22T10:46:17.066Z,10.87
2023-02-22T10:48:49.858Z,10.93
2023-02-22T10:51:17.245Z,10.83
2023-02-22T10:54:01.439Z,11.07
2023-02-22T10:56:30.915Z,11.53
2023-02-22T10:59:06.045Z,11.73
2023-02-22T11:01:33.249Z,12.40
2023-02-22T11:04:34.607Z,12.50
2023-02-22T11:07:01.795Z,11.90
2023-02-22T11:09:31.429Z,11.57
2023-02-22T11:12:30.471Z,11.27
2023-02-22T11:15:00.678Z,12.73
2023-02-22T11:17:34.429Z,12.97
2023-02-22T11:20:01.759Z,11.83
2023-02-22T11:22:42.119Z,11.77
2023-02-22T11:25:21.965Z,11.73
2023-02-22T11:27:59.985Z,12.57
2023-02-22T11:30:35.519Z,13.27
2023-02-22T11:33:24.114Z,13.03
2023-02-22T11:35:59.660Z,13.00
2023-02-22T11:38:39.522Z,12.63
2023-02-22T11:41:16.710Z,11.93
2023-02-22T11:43:49.361Z,12.03
2023-02-22T11:46:26.274Z,13.20
2023-02-22T11:49:00.943Z,12.87
2023-02-22T11:51:33.176Z,13.33
2023-02-22T11:54:28.814Z,12.40
2023-02-22T11:57:23.128Z,14.23
2023-02-22T12:00:16.599Z,13.63
2023-02-22T12:03:08.331Z,14.23
2023-02-22T12:06:07.172Z,13.73
2023-02-22T12:09:02.033Z,14.27
2023-02-22T12:11:50.905Z,14.80
2023-02-22T12:14:38.293Z,15.30
2023-02-22T12:17:39.006Z,15.30
2023-02-22T12:20:12.866Z,14.50
2023-02-22T12:22:53.505Z,15.00
2023-02-22T12:25:29.729Z,14.90
2023-02-22T12:28:24.818Z,15.40
2023-02-22T12:31:23.404Z,15.33
2023-02-22T12:34:09.817Z,16.57
2023-02-22T12:36:46.705Z,17.23
2023-02-22T12:39:58.647Z,15.93
2023-02-22T12:42:31.670Z,16.53
2023-02-22T12:45:10.395Z,16.20
2023-02-22T12:47:47.740Z,17.23
2023-02-22T12:50:28.562Z,16.40
2023-02-22T12:53:16.971Z,16.43
2023-02-22T12:56:00.440Z,18.47
2023-02-22T12:58:37.101Z,16.80
2023-02-22T13:01:20.099Z,17.83
2023-02-22T13:03:49.209Z,17.73
2023-02-22T13:06:42.852Z,19.00
2023-02-22T13:09:36.639Z,17.83
2023-02-22T13:12:11.801Z,18.97
2023-02-22T13:14:51.322Z,21.53
2023-02-22T13:18:01.660Z,20.80
2023-02-22T13:20:48.507Z,20.37
2023-02-22T13:23:19.255Z,19.87
2023-02-22T13:26:05.188Z,21.20
2023-02-22T13:28:57.963Z,21.43
2023-02-22T13:31:45.894Z,20.57
2023-02-22T13:34:16.626Z,19.67
2023-02-22T13:37:17.733Z,20.53
2023-02-22T13:40:17.231Z,20.30
2023-02-22T13:42:44.281Z,20.03
2023-02-22T13:45:39.417Z,20.63
2023-02-22T13:48:19.675Z,22.87
2023-02-22T13:51:31.202Z,22.30
2023-02-22T13:54:15.077Z,22.50
2023-02-22T13:56:44.465Z,22.17
2023-02-22T13:59:29.556Z,21.20
2023-02-22T14:02:01.223Z,20.77
2023-02-22T14:04:28.349Z,22.80
2023-02-22T14:06:56.647Z,21.93
2023-02-22T14:09:50.517Z,20.80
2023-02-22T14:12:29.206Z,21.60
2023-02-22T14:15:28.215Z,21.60
2023-02-22T14:18:08.496Z,22.47
2023-02-22T14:20:40.404Z,22.23
2023-02-22T14:23:26.105Z,23.33
2023-02-22T14:25:54.024Z,24.37
2023-02-22T14:28:46.235Z,25.10
2023-02-22T14:31:36.110Z,23.27
2023-02-22T14:34:12.528Z,26.93
2023-02-22T14:36:54.603Z,26.03
2023-02-22T14:39:33.122Z,29.67
2023-02-22T14:42:34.516Z,28.43
2023-02-22T14:45:24.846Z,28.97
2023-02-22T14:48:25.432Z,29.00
2023-02-22T14:51:19.071Z,30.17
2023-02-22T14:53:58.091Z,29.03
2023-02-22T14:56:30.135Z,29.80
2023-02-22T14:59:25.198Z,28.60
2023-02-22T15:02:12.942Z,29.13
2023-02-22T15:04:44.146Z,30.33
2023-02-22T15:07:35.840Z,27.57
2023-02-22T15:10:29.934Z,27.87
2023-02-22T15:13:16.099Z,28.30
2023-02-22T15:16:08.110Z,26.33
2023-02-22T15:18:40.782Z,28.90
2023-02-22T15:21:13.469Z,30.10
2023-02-22T15:23:49.711Z,29.70
2023-02-22T15:26:46.448Z,28.50
2023-02-22T15:29:35.071Z,27.43
2023-02-22T15:32:17.858Z,27.10
2023-02-22T15:34:45.124Z,26.87
2023-02-22T15:37:25.250Z,26.57
2023-02-22T15:40:14.430Z,25.13
2023-02-22T15:42:48.815Z,26.87
2023-02-22T15:45:20.218Z,26.20
2023-02-22T15:47:54.418Z,29.27
2023-02-22T15:50:26.035Z,28.30
2023-02-22T15:53:07.968Z,29.13
2023-02-22T15:55:35.047Z,30.40
2023-02-22T15:58:22.357Z,29.37
2023-02-22T16:00:59.152Z,29.37
2023-02-22T16:03:28.733Z,29.97
2023-02-22T16:05:58.498Z,28.20
2023-02-22T16:08:52.662Z,28.93
2023-02-22T16:11:38.456Z,29.70
2023-02-22T16:14:24.056Z,30.17
2023-02-22T16:17:10.754Z,31.43
2023-02-22T16:19:44.774Z,32.80
2023-02-22T16:22:29.135Z,33.47
2023-02-22T16:25:21.621Z,30.97
2023-02-22T16:27:52.685Z,35.77
2023-02-22T16:30:29.671Z,34.77
2023-02-22T16:33:05.525Z,33.87
2023-02-22T16:35:35.487Z,32.43
2023-02-22T16:38:14.823Z,32.83
2023-02-22T16:40:52.443Z,34.63
2023-02-22T16:43:22.886Z,31.90
2023-02-22T16:45:50.049Z,31.43
2023-02-22T16:48:23.536Z,31.57
2023-02-22T16:50:55.821Z,31.57
2023-02-22T16:53:27.903Z,31.83
2023-02-22T16:56:02.120Z,29.23
2023-02-22T16:58:36.351Z,31.37
2023-02-22T17:01:06.498Z,31.67
2023-02-22T17:03:36.108Z,28.53
2023-02-22T17:06:06.321Z,27.37
2023-02-22T17:08:38.267Z,25.67
2023-02-22T17:11:08.629Z,25.83
2023-02-22T17:13:40.365Z,24.23
2023-02-22T17:16:14.275Z,24.13
2023-02-22T17:18:45.966Z,25.07
2023-02-22T17:21:16.789Z,24.30
2023-02-22T17:23:46.804Z,25.83
2023-02-22T17:26:19.771Z,24.80
2023-02-22T17:28:46.966Z,27.87
2023-02-22T17:31:22.035Z,25.17
2023-02-22T17:33:51.561Z,24.63
2023-02-22T17:36:19.031Z,25.40
2023-02-22T17:38:49.912Z,24.73
2023-02-22T17:41:17.064Z,25.37
2023-02-22T17:43:44.391Z,25.70
2023-02-22T17:46:11.562Z,24.83
2023-02-22T17:48:41.068Z,25.77
2023-02-22T17:51:10.682Z,26.20
2023-02-22T17:53:38.783Z,25.23
2023-02-22T17:56:07.482Z,23.67
2023-02-22T17:58:43.511Z,25.60
2023-02-22T18:01:40.335Z,25.37
2023-02-22T18:04:09.866Z,25.73
2023-02-22T18:06:41.680Z,26.57
2023-02-22T18:09:11.249Z,26.17
2023-02-22T18:11:39.530Z,26.80
2023-02-22T18:14:12.275Z,27.43
2023-02-22T18:16:42.485Z,25.90
2023-02-22T18:19:11.794Z,25.83
2023-02-22T18:21:41.216Z,26.93
2023-02-22T18:24:12.988Z,26.67
2023-02-22T18:26:40.151Z,25.63
2023-02-22T18:29:07.697Z,26.20
2023-02-22T18:31:34.880Z,26.30
2023-02-22T18:34:04.558Z,26.77
2023-02-22T18:36:37.022Z,26.73
2023-02-22T18:39:04.408Z,26.60
2023-02-22T18:41:34.578Z,26.27
2023-02-22T18:44:03.225Z,27.13
2023-02-22T18:46:30.776Z,26.47
2023-02-22T18:48:58.439Z,27.40
2023-02-22T18:51:28.301Z,27.93
2023-02-22T18:54:01.579Z,27.37
2023-02-22T18:56:31.244Z,28.77
2023-02-22T18:59:03.582Z,29.30
2023-02-22T19:01:38.647Z,29.07
2023-02-22T19:04:14.355Z,28.33
2023-02-22T19:06:43.135Z,26.93
2023-02-22T19:09:10.313Z,28.17
2023-02-22T19:11:44.721Z,28.57
2023-02-22T19:14:12.233Z,29.33
2023-02-22T19:16:39.953Z,30.20
2023-02-22T19:19:11.773Z,28.97
2023-02-22T19:21:41.487Z,31.07
2023-02-22T19:24:08.574Z,28.93
2023-02-22T19:26:38.451Z,28.77
2023-02-22T19:29:08.479Z,30.10
2023-02-22T19:31:35.827Z,29.33
2023-02-22T19:34:11.409Z,29.93
2023-02-22T19:36:46.342Z,29.93
2023-02-22T19:39:18.928Z,30.23
2023-02-22T19:41:48.812Z,30.90
2023-02-22T19:44:18.489Z,29.90
2023-02-22T19:46:47.596Z,30.83
2023-02-22T19:49:16.148Z,30.30
2023-02-22T19:51:45.806Z,30.27
2023-02-22T19:54:19.495Z,33.13
2023-02-22T19:56:53.845Z,31.57
2023-02-22T19:59:26.133Z,32.20
2023-02-22T20:01:54.730Z,31.87
2023-02-22T20:04:24.770Z,31.83
2023-02-22T20:06:57.564Z,32.33
2023-02-22T20:09:49.682Z,32.50
2023-02-22T20:12:19.210Z,33.40
2023-02-22T20:14:51.264Z,34.13
2023-02-22T20:17:20.994Z,33.60
2023-02-22T20:19:48.895Z,33.00
2023-02-22T20:22:26.315Z,33.77
2023-02-22T20:24:55.900Z,34.43
2023-02-22T20:27:28.276Z,34.80
2023-02-22T20:29:55.342Z,34.70
2023-02-22T20:32:30.313Z,35.53
2023-02-22T20:35:00.298Z,33.83
2023-02-22T20:37:29.932Z,35.10
2023-02-22T20:40:04.163Z,36.33
2023-02-22T20:42:32.645Z,34.53
2023-02-22T20:45:04.834Z,34.77
2023-02-22T20:47:32.446Z,36.00
2023-02-22T20:49:59.615Z,35.80
2023-02-22T20:52:30.997Z,36.63
2023-02-22T20:55:01.864Z,37.47
2023-02-22T20:57:30.818Z,36.20
2023-02-22T20:59:59.084Z,35.83
2023-02-22T21:02:26.235Z,36.13
2023-02-22T21:04:58.402Z,37.20
2023-02-22T21:07:27.806Z,37.40
2023-02-22T21:09:59.737Z,35.90
2023-02-22T21:12:31.320Z,35.57
2023-02-22T21:15:03.319Z,36.67
2023-02-22T21:17:32.621Z,36.77
2023-02-22T21:20:09.141Z,37.40
2023-02-22T21:22:39.427Z,37.20
2023-02-22T21:25:06.798Z,37.57
2023-02-22T21:27:36.178Z,37.73
2023-02-22T21:30:06.616Z,37.23
2023-02-22T21:32:36.144Z,36.67
2023-02-22T21:35:06.335Z,37.47
2023-02-22T21:37:36.233Z,36.67
2023-02-22T21:40:10.351Z,37.63
2023-02-22T21:42:48.968Z,36.13
2023-02-22T21:45:22.860Z,35.97
2023-02-22T21:47:54.694Z,37.53
2023-02-22T21:50:25.497Z,37.50
2023-02-22T21:52:54.900Z,36.57
2023-02-22T21:55:29.818Z,36.47
2023-02-22T21:57:56.992Z,36.60
2023-02-22T22:00:31.081Z,37.10
2023-02-22T22:03:08.928Z,35.67
2023-02-22T22:05:45.216Z,35.27
2023-02-22T22:08:32.044Z,36.47
2023-02-22T22:10:59.189Z,36.80
2023-02-22T22:13:28.867Z,36.07
2023-02-22T22:15:56.095Z,36.77
2023-02-22T22:18:30.848Z,36.73
2023-02-22T22:21:05.055Z,35.20
2023-02-22T22:23:33.225Z,34.43
2023-02-22T22:26:10.852Z,36.30
2023-02-22T22:28:42.123Z,35.97
2023-02-22T22:31:10.915Z,34.83
2023-02-22T22:33:44.284Z,35.20
2023-02-22T22:36:18.410Z,36.67
2023-02-22T22:38:52.628Z,36.07
2023-02-22T22:41:25.215Z,34.20
2023-02-22T22:43:54.445Z,36.37
2023-02-22T22:46:21.917Z,34.87
2023-02-22T22:48:51.356Z,35.57
2023-02-22T22:51:21.970Z,37.17
2023-02-22T22:53:53.018Z,35.07
2023-02-22T22:56:26.506Z,36.83
2023-02-22T22:59:00.852Z,35.20
2023-02-22T23:01:34.192Z,34.40
2023-02-22T23:04:06.552Z,35.43
2023-02-22T23:06:41.719Z,37.00
2023-02-22T23:09:18.648Z,35.30
2023-02-22T23:12:08.477Z,35.13
2023-02-22T23:14:43.958Z,35.13
2023-02-22T23:17:26.795Z,34.67
2023-02-22T23:19:56.313Z,35.63
2023-02-22T23:22:28.455Z,35.77
2023-02-22T23:24:59.891Z,34.47
2023-02-22T23:27:28.040Z,35.33
2023-02-22T23:30:00.068Z,36.53
2023-02-22T23:32:27.272Z,35.93
2023-02-22T23:34:58.840Z,36.40
2023-02-22T23:37:28.452Z,35.13
2023-02-22T23:39:55.628Z,35.80
2023-02-22T23:42:23.100Z,35.27
2023-02-22T23:44:52.985Z,36.77
2023-02-22T23:47:22.674Z,38.20
2023-02-22T23:49:52.229Z,36.77
2023-02-22T23:52:24.528Z,36.17
2023-02-22T23:54:54.052Z,36.23
2023-02-22T23:57:21.337Z,36.03
2023-02-22T23:59:51.399Z,35.77
